sensor_id;sensor_type;location;lat;lon;timestamp;P1;durP1;ratioP1;P2;durP2;ratioP2
23838;SDS011;12100;44.384;20.272;2022-09-20T00:00:06;19.02;;;11.35;;
23838;SDS011;12100;44.384;20.272;2022-09-20T00:02:32;19.30;;;10.95;;
23838;SDS011;12100;44.384;20.272;2022-09-20T00:04:58;14.55;;;10.25;;
23838;SDS011;12100;44.384;20.272;2022-09-20T00:07:23;26.20;;;12.05;;
23838;SDS011;12100;44.384;20.272;2022-09-20T00:09:49;17.95;;;10.93;;
23838;SDS011;12100;44.384;20.272;2022-09-20T00:12:15;25.20;;;9.98;;
23838;SDS011;12100;44.384;20.272;2022-09-20T00:14:41;12.30;;;7.68;;
23838;SDS011;12100;44.384;20.272;2022-09-20T00:17:06;14.63;;;8.60;;
23838;SDS011;12100;44.384;20.272;2022-09-20T00:19:32;20.73;;;10.82;;
23838;SDS011;12100;44.384;20.272;2022-09-20T00:21:58;17.27;;;11.10;;
23838;SDS011;12100;44.384;20.272;2022-09-20T00:24:24;21.65;;;11.77;;
23838;SDS011;12100;44.384;20.272;2022-09-20T00:26:50;18.42;;;10.25;;
23838;SDS011;12100;44.384;20.272;2022-09-20T00:29:15;18.65;;;11.27;;
23838;SDS011;12100;44.384;20.272;2022-09-20T00:31:41;30.42;;;11.93;;
23838;SDS011;12100;44.384;20.272;2022-09-20T00:34:08;20.27;;;10.52;;
23838;SDS011;12100;44.384;20.272;2022-09-20T00:36:52;18.38;;;10.55;;
23838;SDS011;12100;44.384;20.272;2022-09-20T00:39:18;38.25;;;14.15;;
23838;SDS011;12100;44.384;20.272;2022-09-20T00:41:44;49.40;;;12.85;;
23838;SDS011;12100;44.384;20.272;2022-09-20T00:47:13;27.27;;;11.00;;
23838;SDS011;12100;44.384;20.272;2022-09-20T00:49:50;18.92;;;10.88;;
23838;SDS011;12100;44.384;20.272;2022-09-20T00:52:20;17.35;;;10.85;;
23838;SDS011;12100;44.384;20.272;2022-09-20T00:54:46;17.40;;;9.85;;
23838;SDS011;12100;44.384;20.272;2022-09-20T00:57:13;14.10;;;8.68;;
23838;SDS011;12100;44.384;20.272;2022-09-20T00:59:40;11.45;;;7.57;;
23838;SDS011;12100;44.384;20.272;2022-09-20T01:04:44;10.57;;;6.82;;
23838;SDS011;12100;44.384;20.272;2022-09-20T01:07:12;9.95;;;6.70;;
23838;SDS011;12100;44.384;20.272;2022-09-20T01:09:40;10.32;;;6.82;;
23838;SDS011;12100;44.384;20.272;2022-09-20T01:12:07;10.57;;;6.88;;
23838;SDS011;12100;44.384;20.272;2022-09-20T01:14:36;8.80;;;6.38;;
23838;SDS011;12100;44.384;20.272;2022-09-20T01:17:03;8.38;;;6.18;;
23838;SDS011;12100;44.384;20.272;2022-09-20T01:19:50;11.55;;;6.90;;
23838;SDS011;12100;44.384;20.272;2022-09-20T01:22:22;8.07;;;6.03;;
23838;SDS011;12100;44.384;20.272;2022-09-20T01:27:43;15.52;;;8.98;;
23838;SDS011;12100;44.384;20.272;2022-09-20T01:30:18;13.63;;;9.43;;
23838;SDS011;12100;44.384;20.272;2022-09-20T01:35:35;17.80;;;9.60;;
23838;SDS011;12100;44.384;20.272;2022-09-20T01:43:51;18.60;;;10.88;;
23838;SDS011;12100;44.384;20.272;2022-09-20T01:46:32;16.27;;;9.20;;
23838;SDS011;12100;44.384;20.272;2022-09-20T01:57:52;9.40;;;6.63;;
23838;SDS011;12100;44.384;20.272;2022-09-20T02:00:32;10.50;;;7.00;;
23838;SDS011;12100;44.384;20.272;2022-09-20T02:17:38;9.85;;;6.97;;
23838;SDS011;12100;44.384;20.272;2022-09-20T02:20:07;10.60;;;6.75;;
23838;SDS011;12100;44.384;20.272;2022-09-20T02:23:00;12.02;;;8.00;;
23838;SDS011;12100;44.384;20.272;2022-09-20T02:25:56;10.32;;;6.93;;
23838;SDS011;12100;44.384;20.272;2022-09-20T02:28:53;10.27;;;6.80;;
23838;SDS011;12100;44.384;20.272;2022-09-20T02:45:46;7.40;;;5.18;;
23838;SDS011;12100;44.384;20.272;2022-09-20T02:49:07;8.43;;;6.38;;
23838;SDS011;12100;44.384;20.272;2022-09-20T02:56:59;9.07;;;5.65;;
23838;SDS011;12100;44.384;20.272;2022-09-20T03:07:43;7.80;;;5.35;;
23838;SDS011;12100;44.384;20.272;2022-09-20T03:10:35;9.68;;;5.55;;
23838;SDS011;12100;44.384;20.272;2022-09-20T03:13:14;8.70;;;5.53;;
23838;SDS011;12100;44.384;20.272;2022-09-20T03:30:17;9.88;;;6.95;;
23838;SDS011;12100;44.384;20.272;2022-09-20T03:33:02;9.73;;;6.13;;
23838;SDS011;12100;44.384;20.272;2022-09-20T03:46:50;8.93;;;5.93;;
23838;SDS011;12100;44.384;20.272;2022-09-20T03:49:37;8.98;;;5.65;;
23838;SDS011;12100;44.384;20.272;2022-09-20T04:14:16;7.43;;;5.30;;
23838;SDS011;12100;44.384;20.272;2022-09-20T04:17:18;8.38;;;5.68;;
23838;SDS011;12100;44.384;20.272;2022-09-20T04:25:56;9.50;;;6.30;;
23838;SDS011;12100;44.384;20.272;2022-09-20T04:29:09;7.65;;;5.45;;
23838;SDS011;12100;44.384;20.272;2022-09-20T04:31:30;8.88;;;5.82;;
23838;SDS011;12100;44.384;20.272;2022-09-20T04:34:21;8.98;;;6.38;;
23838;SDS011;12100;44.384;20.272;2022-09-20T04:37:21;9.85;;;7.32;;
23838;SDS011;12100;44.384;20.272;2022-09-20T04:40:14;13.77;;;9.00;;
23838;SDS011;12100;44.384;20.272;2022-09-20T04:43:09;12.82;;;10.77;;
23838;SDS011;12100;44.384;20.272;2022-09-20T04:46:07;16.95;;;12.00;;
23838;SDS011;12100;44.384;20.272;2022-09-20T05:20:38;7.80;;;4.25;;
23838;SDS011;12100;44.384;20.272;2022-09-20T05:23:13;9.77;;;5.28;;
23838;SDS011;12100;44.384;20.272;2022-09-20T05:26:11;8.00;;;4.40;;
23838;SDS011;12100;44.384;20.272;2022-09-20T05:31:39;6.45;;;4.35;;
23838;SDS011;12100;44.384;20.272;2022-09-20T05:34:21;8.20;;;4.43;;
23838;SDS011;12100;44.384;20.272;2022-09-20T05:37:01;4.38;;;3.97;;
23838;SDS011;12100;44.384;20.272;2022-09-20T05:39:35;4.60;;;3.85;;
23838;SDS011;12100;44.384;20.272;2022-09-20T05:42:24;8.05;;;3.25;;
23838;SDS011;12100;44.384;20.272;2022-09-20T05:45:25;10.60;;;;;
23838;SDS011;12100;44.384;20.272;2022-09-20T05:48:09;9.25;;;4.10;;
23838;SDS011;12100;44.384;20.272;2022-09-20T05:50:59;9.40;;;4.10;;
23838;SDS011;12100;44.384;20.272;2022-09-20T05:56:17;12.05;;;4.28;;
23838;SDS011;12100;44.384;20.272;2022-09-20T06:01:44;5.90;;;3.40;;
23838;SDS011;12100;44.384;20.272;2022-09-20T06:04:34;9.60;;;2.95;;
23838;SDS011;12100;44.384;20.272;2022-09-20T06:18:33;6.53;;;2.33;;
23838;SDS011;12100;44.384;20.272;2022-09-20T06:24:34;2.97;;;2.15;;
23838;SDS011;12100;44.384;20.272;2022-09-20T06:27:03;5.28;;;2.25;;
23838;SDS011;12100;44.384;20.272;2022-09-20T06:29:35;5.25;;;2.10;;
23838;SDS011;12100;44.384;20.272;2022-09-20T06:32:04;4.20;;;2.15;;
23838;SDS011;12100;44.384;20.272;2022-09-20T06:34:30;4.70;;;1.95;;
23838;SDS011;12100;44.384;20.272;2022-09-20T06:43:02;7.43;;;2.38;;
23838;SDS011;12100;44.384;20.272;2022-09-20T06:45:29;2.78;;;1.55;;
23838;SDS011;12100;44.384;20.272;2022-09-20T06:47:56;4.15;;;1.38;;
23838;SDS011;12100;44.384;20.272;2022-09-20T06:50:21;2.17;;;1.23;;
23838;SDS011;12100;44.384;20.272;2022-09-20T06:52:47;3.75;;;1.10;;
23838;SDS011;12100;44.384;20.272;2022-09-20T06:55:25;1.20;;;1.10;;
23838;SDS011;12100;44.384;20.272;2022-09-20T06:57:56;1.92;;;0.75;;
23838;SDS011;12100;44.384;20.272;2022-09-20T07:00:22;1.60;;;1.13;;
23838;SDS011;12100;44.384;20.272;2022-09-20T07:02:48;3.08;;;1.10;;
23838;SDS011;12100;44.384;20.272;2022-09-20T07:05:15;2.83;;;0.93;;
23838;SDS011;12100;44.384;20.272;2022-09-20T07:07:41;1.33;;;1.23;;
23838;SDS011;12100;44.384;20.272;2022-09-20T07:10:08;2.08;;;1.30;;
23838;SDS011;12100;44.384;20.272;2022-09-20T07:12:35;1.42;;;1.33;;
23838;SDS011;12100;44.384;20.272;2022-09-20T07:15:01;4.75;;;1.67;;
23838;SDS011;12100;44.384;20.272;2022-09-20T07:17:27;4.55;;;2.10;;
23838;SDS011;12100;44.384;20.272;2022-09-20T07:19:53;1.52;;;1.17;;
23838;SDS011;12100;44.384;20.272;2022-09-20T07:22:21;2.28;;;1.55;;
23838;SDS011;12100;44.384;20.272;2022-09-20T07:24:47;3.50;;;1.50;;
23838;SDS011;12100;44.384;20.272;2022-09-20T07:27:12;1.55;;;1.23;;
23838;SDS011;12100;44.384;20.272;2022-09-20T07:29:38;1.92;;;1.02;;
23838;SDS011;12100;44.384;20.272;2022-09-20T07:32:07;2.00;;;0.98;;
23838;SDS011;12100;44.384;20.272;2022-09-20T07:34:33;2.17;;;1.13;;
23838;SDS011;12100;44.384;20.272;2022-09-20T07:36:59;2.50;;;0.90;;
23838;SDS011;12100;44.384;20.272;2022-09-20T07:39:25;1.73;;;1.60;;
23838;SDS011;12100;44.384;20.272;2022-09-20T07:41:51;4.20;;;3.80;;
23838;SDS011;12100;44.384;20.272;2022-09-20T07:44:18;4.60;;;2.22;;
23838;SDS011;12100;44.384;20.272;2022-09-20T07:46:50;2.92;;;1.55;;
23838;SDS011;12100;44.384;20.272;2022-09-20T07:49:17;1.02;;;0.93;;
23838;SDS011;12100;44.384;20.272;2022-09-20T07:51:43;1.00;;;0.82;;
23838;SDS011;12100;44.384;20.272;2022-09-20T07:54:09;1.30;;;1.00;;
23838;SDS011;12100;44.384;20.272;2022-09-20T07:56:36;2.22;;;1.00;;
23838;SDS011;12100;44.384;20.272;2022-09-20T07:59:02;1.58;;;1.20;;
23838;SDS011;12100;44.384;20.272;2022-09-20T08:01:28;1.45;;;1.00;;
23838;SDS011;12100;44.384;20.272;2022-09-20T08:03:54;1.38;;;0.90;;
23838;SDS011;12100;44.384;20.272;2022-09-20T08:06:21;0.63;;;0.60;;
23838;SDS011;12100;44.384;20.272;2022-09-20T08:08:47;3.00;;;1.90;;
23838;SDS011;12100;44.384;20.272;2022-09-20T08:11:14;1.95;;;1.25;;
23838;SDS011;12100;44.384;20.272;2022-09-20T08:13:46;9.95;;;1.10;;
23838;SDS011;12100;44.384;20.272;2022-09-20T08:16:13;2.90;;;0.90;;
23838;SDS011;12100;44.384;20.272;2022-09-20T08:18:50;1.30;;;0.68;;
23838;SDS011;12100;44.384;20.272;2022-09-20T08:21:21;0.63;;;0.57;;
23838;SDS011;12100;44.384;20.272;2022-09-20T08:23:48;1.02;;;0.90;;
23838;SDS011;12100;44.384;20.272;2022-09-20T08:26:15;1.25;;;0.73;;
23838;SDS011;12100;44.384;20.272;2022-09-20T08:28:43;4.45;;;0.63;;
23838;SDS011;12100;44.384;20.272;2022-09-20T08:31:14;3.50;;;1.08;;
23838;SDS011;12100;44.384;20.272;2022-09-20T08:33:43;1.17;;;0.60;;
23838;SDS011;12100;44.384;20.272;2022-09-20T08:36:12;0.73;;;0.60;;
23838;SDS011;12100;44.384;20.272;2022-09-20T08:38:39;0.98;;;0.82;;
23838;SDS011;12100;44.384;20.272;2022-09-20T08:41:28;1.10;;;0.57;;
23838;SDS011;12100;44.384;20.272;2022-09-20T08:46:26;1.90;;;0.50;;
23838;SDS011;12100;44.384;20.272;2022-09-20T08:48:58;1.85;;;0.57;;
23838;SDS011;12100;44.384;20.272;2022-09-20T08:51:26;22.30;;;13.60;;
23838;SDS011;12100;44.384;20.272;2022-09-20T08:53:56;7.47;;;4.80;;
23838;SDS011;12100;44.384;20.272;2022-09-20T08:56:22;1.40;;;0.85;;
23838;SDS011;12100;44.384;20.272;2022-09-20T08:58:52;0.90;;;0.73;;
23838;SDS011;12100;44.384;20.272;2022-09-20T09:01:21;2.72;;;1.40;;
23838;SDS011;12100;44.384;20.272;2022-09-20T09:04:01;1.45;;;1.17;;
23838;SDS011;12100;44.384;20.272;2022-09-20T09:06:37;1.65;;;0.50;;
23838;SDS011;12100;44.384;20.272;2022-09-20T09:09:04;1.23;;;0.65;;
23838;SDS011;12100;44.384;20.272;2022-09-20T09:11:31;1.05;;;0.45;;
23838;SDS011;12100;44.384;20.272;2022-09-20T09:16:32;0.50;;;0.47;;
23838;SDS011;12100;44.384;20.272;2022-09-20T09:19:24;0.35;;;0.30;;
23838;SDS011;12100;44.384;20.272;2022-09-20T09:22:01;0.47;;;0.32;;
23838;SDS011;12100;44.384;20.272;2022-09-20T09:24:29;1.63;;;0.50;;
23838;SDS011;12100;44.384;20.272;2022-09-20T09:27:12;0.90;;;0.40;;
23838;SDS011;12100;44.384;20.272;2022-09-20T09:29:51;0.80;;;0.80;;
23838;SDS011;12100;44.384;20.272;2022-09-20T09:32:20;0.85;;;0.50;;
23838;SDS011;12100;44.384;20.272;2022-09-20T09:34:54;0.50;;;0.30;;
23838;SDS011;12100;44.384;20.272;2022-09-20T09:37:30;1.35;;;0.30;;
23838;SDS011;12100;44.384;20.272;2022-09-20T09:42:31;0.68;;;0.47;;
23838;SDS011;12100;44.384;20.272;2022-09-20T09:45:12;1.98;;;0.43;;
23838;SDS011;12100;44.384;20.272;2022-09-20T09:47:53;0.60;;;0.50;;
23838;SDS011;12100;44.384;20.272;2022-09-20T09:50:21;0.43;;;0.43;;
23838;SDS011;12100;44.384;20.272;2022-09-20T10:01:17;0.80;;;0.65;;
23838;SDS011;12100;44.384;20.272;2022-09-20T10:04:24;0.47;;;0.40;;
23838;SDS011;12100;44.384;20.272;2022-09-20T10:09:53;0.98;;;0.60;;
23838;SDS011;12100;44.384;20.272;2022-09-20T10:17:55;5.30;;;4.10;;
23838;SDS011;12100;44.384;20.272;2022-09-20T10:25:55;1.45;;;0.55;;
23838;SDS011;12100;44.384;20.272;2022-09-20T10:37:14;4.65;;;2.70;;
23838;SDS011;12100;44.384;20.272;2022-09-20T10:43:36;0.70;;;0.68;;
23838;SDS011;12100;44.384;20.272;2022-09-20T10:46:51;1.13;;;0.50;;
23838;SDS011;12100;44.384;20.272;2022-09-20T11:02:19;3.13;;;0.70;;
23838;SDS011;12100;44.384;20.272;2022-09-20T11:04:54;0.90;;;0.50;;
23838;SDS011;12100;44.384;20.272;2022-09-20T11:10:26;1.25;;;0.60;;
23838;SDS011;12100;44.384;20.272;2022-09-20T11:13:01;0.95;;;0.68;;
23838;SDS011;12100;44.384;20.272;2022-09-20T11:18:42;0.75;;;0.50;;
23838;SDS011;12100;44.384;20.272;2022-09-20T11:21:27;0.85;;;0.60;;
23838;SDS011;12100;44.384;20.272;2022-09-20T11:24:11;1.90;;;0.82;;
23838;SDS011;12100;44.384;20.272;2022-09-20T11:27:11;1.15;;;0.60;;
23838;SDS011;12100;44.384;20.272;2022-09-20T11:29:44;3.05;;;0.95;;
23838;SDS011;12100;44.384;20.272;2022-09-20T11:32:14;2.05;;;0.63;;
23838;SDS011;12100;44.384;20.272;2022-09-20T11:34:47;1.13;;;0.70;;
23838;SDS011;12100;44.384;20.272;2022-09-20T11:37:41;1.02;;;0.63;;
23838;SDS011;12100;44.384;20.272;2022-09-20T11:43:16;2.92;;;0.80;;
23838;SDS011;12100;44.384;20.272;2022-09-20T11:45:43;0.82;;;0.45;;
23838;SDS011;12100;44.384;20.272;2022-09-20T11:48:20;1.23;;;0.63;;
23838;SDS011;12100;44.384;20.272;2022-09-20T11:51:10;1.10;;;0.60;;
23838;SDS011;12100;44.384;20.272;2022-09-20T11:53:50;1.17;;;0.50;;
23838;SDS011;12100;44.384;20.272;2022-09-20T11:56:19;0.80;;;0.55;;
23838;SDS011;12100;44.384;20.272;2022-09-20T11:58:50;1.63;;;0.75;;
23838;SDS011;12100;44.384;20.272;2022-09-20T12:04:04;1.00;;;0.50;;
23838;SDS011;12100;44.384;20.272;2022-09-20T12:06:54;0.73;;;0.40;;
23838;SDS011;12100;44.384;20.272;2022-09-20T12:09:33;0.95;;;0.47;;
23838;SDS011;12100;44.384;20.272;2022-09-20T12:12:14;0.82;;;0.80;;
23838;SDS011;12100;44.384;20.272;2022-09-20T12:14:55;1.10;;;0.60;;
23838;SDS011;12100;44.384;20.272;2022-09-20T12:28:53;2.13;;;0.63;;
23838;SDS011;12100;44.384;20.272;2022-09-20T12:33:57;1.23;;;0.50;;
23838;SDS011;12100;44.384;20.272;2022-09-20T12:36:25;1.45;;;0.60;;
23838;SDS011;12100;44.384;20.272;2022-09-20T12:46:58;2.15;;;0.80;;
23838;SDS011;12100;44.384;20.272;2022-09-20T12:57:57;0.90;;;0.77;;
23838;SDS011;12100;44.384;20.272;2022-09-20T13:00:37;2.25;;;0.65;;
23838;SDS011;12100;44.384;20.272;2022-09-20T13:08:43;2.08;;;0.63;;
23838;SDS011;12100;44.384;20.272;2022-09-20T13:11:42;1.65;;;0.50;;
23838;SDS011;12100;44.384;20.272;2022-09-20T13:17:03;2.40;;;0.80;;
23838;SDS011;12100;44.384;20.272;2022-09-20T13:19:41;0.88;;;0.65;;
23838;SDS011;12100;44.384;20.272;2022-09-20T13:22:16;1.67;;;0.52;;
23838;SDS011;12100;44.384;20.272;2022-09-20T13:24:47;1.63;;;0.70;;
23838;SDS011;12100;44.384;20.272;2022-09-20T13:30:07;0.45;;;0.45;;
23838;SDS011;12100;44.384;20.272;2022-09-20T13:32:44;2.08;;;1.42;;
23838;SDS011;12100;44.384;20.272;2022-09-20T13:37:37;1.17;;;0.80;;
23838;SDS011;12100;44.384;20.272;2022-09-20T13:45:46;1.15;;;0.60;;
23838;SDS011;12100;44.384;20.272;2022-09-20T13:48:16;0.90;;;0.57;;
23838;SDS011;12100;44.384;20.272;2022-09-20T13:50:42;2.88;;;1.00;;
23838;SDS011;12100;44.384;20.272;2022-09-20T13:53:15;1.70;;;0.57;;
23838;SDS011;12100;44.384;20.272;2022-09-20T13:55:42;5.07;;;2.42;;
23838;SDS011;12100;44.384;20.272;2022-09-20T13:58:17;1.17;;;1.00;;
23838;SDS011;12100;44.384;20.272;2022-09-20T14:00:48;3.22;;;0.90;;
23838;SDS011;12100;44.384;20.272;2022-09-20T14:03:17;3.30;;;1.13;;
23838;SDS011;12100;44.384;20.272;2022-09-20T14:05:48;0.63;;;0.60;;
23838;SDS011;12100;44.384;20.272;2022-09-20T14:11:02;1.67;;;0.60;;
23838;SDS011;12100;44.384;20.272;2022-09-20T14:13:31;3.60;;;0.55;;
23838;SDS011;12100;44.384;20.272;2022-09-20T14:16:01;1.08;;;0.70;;
23838;SDS011;12100;44.384;20.272;2022-09-20T14:18:27;1.25;;;0.60;;
23838;SDS011;12100;44.384;20.272;2022-09-20T14:20:52;0.32;;;0.32;;
23838;SDS011;12100;44.384;20.272;2022-09-20T14:23:23;1.60;;;0.80;;
23838;SDS011;12100;44.384;20.272;2022-09-20T14:28:44;0.95;;;0.77;;
23838;SDS011;12100;44.384;20.272;2022-09-20T14:31:15;2.47;;;1.70;;
23838;SDS011;12100;44.384;20.272;2022-09-20T14:33:56;4.57;;;3.08;;
23838;SDS011;12100;44.384;20.272;2022-09-20T14:36:24;1.90;;;1.15;;
23838;SDS011;12100;44.384;20.272;2022-09-20T14:38:54;3.00;;;1.88;;
23838;SDS011;12100;44.384;20.272;2022-09-20T14:41:33;1.67;;;1.58;;
23838;SDS011;12100;44.384;20.272;2022-09-20T14:44:01;0.73;;;0.60;;
23838;SDS011;12100;44.384;20.272;2022-09-20T14:46:31;2.83;;;1.25;;
23838;SDS011;12100;44.384;20.272;2022-09-20T14:49:18;2.33;;;1.20;;
23838;SDS011;12100;44.384;20.272;2022-09-20T14:51:46;2.30;;;0.93;;
23838;SDS011;12100;44.384;20.272;2022-09-20T14:56:46;3.67;;;2.95;;
23838;SDS011;12100;44.384;20.272;2022-09-20T15:01:43;10.82;;;4.68;;
23838;SDS011;12100;44.384;20.272;2022-09-20T15:04:28;23.67;;;9.00;;
23838;SDS011;12100;44.384;20.272;2022-09-20T15:06:59;9.68;;;4.68;;
23838;SDS011;12100;44.384;20.272;2022-09-20T15:09:26;6.90;;;1.02;;
23838;SDS011;12100;44.384;20.272;2022-09-20T15:12:10;2.30;;;0.90;;
23838;SDS011;12100;44.384;20.272;2022-09-20T15:14:37;1.02;;;0.73;;
23838;SDS011;12100;44.384;20.272;2022-09-20T15:17:08;1.48;;;1.30;;
23838;SDS011;12100;44.384;20.272;2022-09-20T15:19:40;2.40;;;1.00;;
23838;SDS011;12100;44.384;20.272;2022-09-20T15:22:07;3.35;;;2.25;;
23838;SDS011;12100;44.384;20.272;2022-09-20T15:24:34;2.53;;;1.40;;
23838;SDS011;12100;44.384;20.272;2022-09-20T15:27:00;2.63;;;1.20;;
23838;SDS011;12100;44.384;20.272;2022-09-20T15:29:26;1.17;;;0.70;;
23838;SDS011;12100;44.384;20.272;2022-09-20T15:31:51;2.10;;;0.80;;
23838;SDS011;12100;44.384;20.272;2022-09-20T15:34:17;3.55;;;0.80;;
23838;SDS011;12100;44.384;20.272;2022-09-20T15:36:44;1.45;;;0.60;;
23838;SDS011;12100;44.384;20.272;2022-09-20T15:39:10;2.42;;;0.55;;
23838;SDS011;12100;44.384;20.272;2022-09-20T15:41:36;4.18;;;0.75;;
23838;SDS011;12100;44.384;20.272;2022-09-20T15:44:02;1.27;;;0.55;;
23838;SDS011;12100;44.384;20.272;2022-09-20T15:46:29;2.53;;;1.00;;
23838;SDS011;12100;44.384;20.272;2022-09-20T15:48:56;2.53;;;0.73;;
23838;SDS011;12100;44.384;20.272;2022-09-20T15:51:24;1.75;;;0.73;;
23838;SDS011;12100;44.384;20.272;2022-09-20T15:53:54;2.00;;;0.70;;
23838;SDS011;12100;44.384;20.272;2022-09-20T15:56:23;1.45;;;0.90;;
23838;SDS011;12100;44.384;20.272;2022-09-20T15:59:00;1.98;;;0.93;;
23838;SDS011;12100;44.384;20.272;2022-09-20T16:01:34;1.88;;;0.80;;
23838;SDS011;12100;44.384;20.272;2022-09-20T16:04:05;1.95;;;0.80;;
23838;SDS011;12100;44.384;20.272;2022-09-20T16:06:36;0.95;;;0.73;;
23838;SDS011;12100;44.384;20.272;2022-09-20T16:09:03;0.57;;;0.45;;
23838;SDS011;12100;44.384;20.272;2022-09-20T16:11:29;0.98;;;0.55;;
23838;SDS011;12100;44.384;20.272;2022-09-20T16:13:56;2.67;;;0.80;;
23838;SDS011;12100;44.384;20.272;2022-09-20T16:16:24;1.10;;;0.60;;
23838;SDS011;12100;44.384;20.272;2022-09-20T16:18:51;2.33;;;1.48;;
23838;SDS011;12100;44.384;20.272;2022-09-20T16:21:36;1.40;;;0.80;;
23838;SDS011;12100;44.384;20.272;2022-09-20T16:24:03;2.38;;;0.85;;
23838;SDS011;12100;44.384;20.272;2022-09-20T16:26:30;1.70;;;0.60;;
23838;SDS011;12100;44.384;20.272;2022-09-20T16:28:58;2.70;;;0.85;;
23838;SDS011;12100;44.384;20.272;2022-09-20T16:31:28;2.58;;;1.25;;
23838;SDS011;12100;44.384;20.272;2022-09-20T16:36:53;0.63;;;0.60;;
23838;SDS011;12100;44.384;20.272;2022-09-20T16:39:22;0.90;;;0.70;;
23838;SDS011;12100;44.384;20.272;2022-09-20T16:41:51;1.60;;;1.02;;
23838;SDS011;12100;44.384;20.272;2022-09-20T16:44:32;1.75;;;1.00;;
23838;SDS011;12100;44.384;20.272;2022-09-20T16:46:59;2.08;;;0.95;;
23838;SDS011;12100;44.384;20.272;2022-09-20T16:49:25;2.70;;;1.88;;
23838;SDS011;12100;44.384;20.272;2022-09-20T16:51:52;2.80;;;1.33;;
23838;SDS011;12100;44.384;20.272;2022-09-20T16:54:18;5.95;;;1.60;;
23838;SDS011;12100;44.384;20.272;2022-09-20T16:56:45;2.33;;;0.95;;
23838;SDS011;12100;44.384;20.272;2022-09-20T16:59:14;2.10;;;1.65;;
23838;SDS011;12100;44.384;20.272;2022-09-20T17:01:43;2.90;;;1.92;;
23838;SDS011;12100;44.384;20.272;2022-09-20T17:04:09;4.63;;;1.73;;
23838;SDS011;12100;44.384;20.272;2022-09-20T17:06:40;3.95;;;1.20;;
23838;SDS011;12100;44.384;20.272;2022-09-20T17:09:09;3.15;;;1.58;;
23838;SDS011;12100;44.384;20.272;2022-09-20T17:11:37;3.35;;;1.60;;
23838;SDS011;12100;44.384;20.272;2022-09-20T17:14:04;4.80;;;1.95;;
23838;SDS011;12100;44.384;20.272;2022-09-20T17:16:31;2.30;;;1.15;;
23838;SDS011;12100;44.384;20.272;2022-09-20T17:18:59;2.88;;;1.20;;
23838;SDS011;12100;44.384;20.272;2022-09-20T17:21:27;1.30;;;1.17;;
23838;SDS011;12100;44.384;20.272;2022-09-20T17:23:55;2.95;;;1.23;;
23838;SDS011;12100;44.384;20.272;2022-09-20T17:26:32;4.40;;;1.42;;
23838;SDS011;12100;44.384;20.272;2022-09-20T17:29:06;3.03;;;1.23;;
23838;SDS011;12100;44.384;20.272;2022-09-20T17:31:34;2.58;;;1.00;;
23838;SDS011;12100;44.384;20.272;2022-09-20T17:34:03;6.00;;;2.10;;
23838;SDS011;12100;44.384;20.272;2022-09-20T17:36:32;3.45;;;2.95;;
23838;SDS011;12100;44.384;20.272;2022-09-20T17:39:00;3.72;;;2.78;;
23838;SDS011;12100;44.384;20.272;2022-09-20T17:41:27;6.35;;;4.43;;
23838;SDS011;12100;44.384;20.272;2022-09-20T17:43:57;6.90;;;4.25;;
23838;SDS011;12100;44.384;20.272;2022-09-20T17:46:28;5.25;;;2.70;;
23838;SDS011;12100;44.384;20.272;2022-09-20T17:48:59;3.03;;;1.95;;
23838;SDS011;12100;44.384;20.272;2022-09-20T17:51:36;3.38;;;1.90;;
23838;SDS011;12100;44.384;20.272;2022-09-20T17:54:03;2.40;;;1.55;;
23838;SDS011;12100;44.384;20.272;2022-09-20T17:56:30;2.20;;;1.60;;
23838;SDS011;12100;44.384;20.272;2022-09-20T17:58:57;3.28;;;1.25;;
23838;SDS011;12100;44.384;20.272;2022-09-20T18:01:24;2.28;;;1.80;;
23838;SDS011;12100;44.384;20.272;2022-09-20T18:03:51;4.57;;;2.28;;
23838;SDS011;12100;44.384;20.272;2022-09-20T18:06:23;3.67;;;1.70;;
23838;SDS011;12100;44.384;20.272;2022-09-20T18:08:57;2.22;;;1.95;;
23838;SDS011;12100;44.384;20.272;2022-09-20T18:11:31;3.47;;;1.90;;
23838;SDS011;12100;44.384;20.272;2022-09-20T18:14:02;3.20;;;1.83;;
23838;SDS011;12100;44.384;20.272;2022-09-20T18:16:30;1.98;;;1.77;;
23838;SDS011;12100;44.384;20.272;2022-09-20T18:18:57;3.22;;;1.90;;
23838;SDS011;12100;44.384;20.272;2022-09-20T18:21:26;4.22;;;1.98;;
23838;SDS011;12100;44.384;20.272;2022-09-20T18:23:53;5.05;;;2.00;;
23838;SDS011;12100;44.384;20.272;2022-09-20T18:26:21;3.38;;;1.23;;
23838;SDS011;12100;44.384;20.272;2022-09-20T18:31:24;2.47;;;1.60;;
23838;SDS011;12100;44.384;20.272;2022-09-20T18:33:53;3.30;;;1.10;;
23838;SDS011;12100;44.384;20.272;2022-09-20T18:36:19;4.32;;;1.50;;
23838;SDS011;12100;44.384;20.272;2022-09-20T18:38:48;3.47;;;1.90;;
23838;SDS011;12100;44.384;20.272;2022-09-20T18:41:19;3.20;;;2.00;;
23838;SDS011;12100;44.384;20.272;2022-09-20T18:43:45;3.67;;;2.30;;
23838;SDS011;12100;44.384;20.272;2022-09-20T18:46:11;5.13;;;1.98;;
23838;SDS011;12100;44.384;20.272;2022-09-20T18:48:37;3.63;;;2.03;;
23838;SDS011;12100;44.384;20.272;2022-09-20T18:51:04;3.03;;;2.15;;
23838;SDS011;12100;44.384;20.272;2022-09-20T18:53:32;5.40;;;2.40;;
23838;SDS011;12100;44.384;20.272;2022-09-20T18:58:50;2.50;;;1.50;;
23838;SDS011;12100;44.384;20.272;2022-09-20T19:10:01;6.00;;;3.53;;
23838;SDS011;12100;44.384;20.272;2022-09-20T19:21:08;6.43;;;2.63;;
23838;SDS011;12100;44.384;20.272;2022-09-20T19:26:23;4.45;;;2.10;;
23838;SDS011;12100;44.384;20.272;2022-09-20T19:28:51;4.10;;;2.00;;
23838;SDS011;12100;44.384;20.272;2022-09-20T19:31:23;3.90;;;2.45;;
23838;SDS011;12100;44.384;20.272;2022-09-20T19:33:56;5.28;;;3.10;;
23838;SDS011;12100;44.384;20.272;2022-09-20T19:36:24;6.57;;;3.38;;
23838;SDS011;12100;44.384;20.272;2022-09-20T19:39:36;5.28;;;3.10;;
23838;SDS011;12100;44.384;20.272;2022-09-20T19:45:54;10.32;;;8.63;;
23838;SDS011;12100;44.384;20.272;2022-09-20T19:50:42;8.90;;;7.65;;
23838;SDS011;12100;44.384;20.272;2022-09-20T19:53:13;31.70;;;28.35;;
23838;SDS011;12100;44.384;20.272;2022-09-20T19:55:55;17.00;;;15.23;;
23838;SDS011;12100;44.384;20.272;2022-09-20T19:58:32;12.18;;;9.65;;
23838;SDS011;12100;44.384;20.272;2022-09-20T20:00:59;13.27;;;10.90;;
23838;SDS011;12100;44.384;20.272;2022-09-20T20:03:25;16.77;;;11.75;;
23838;SDS011;12100;44.384;20.272;2022-09-20T20:08:40;11.23;;;5.75;;
23838;SDS011;12100;44.384;20.272;2022-09-20T20:14:36;5.53;;;3.97;;
23838;SDS011;12100;44.384;20.272;2022-09-20T20:17:14;5.07;;;3.35;;
23838;SDS011;12100;44.384;20.272;2022-09-20T20:25:54;10.48;;;5.72;;
23838;SDS011;12100;44.384;20.272;2022-09-20T20:28:27;8.07;;;5.95;;
23838;SDS011;12100;44.384;20.272;2022-09-20T20:30:53;10.52;;;6.80;;
23838;SDS011;12100;44.384;20.272;2022-09-20T20:33:19;4.90;;;3.65;;
23838;SDS011;12100;44.384;20.272;2022-09-20T20:35:55;6.10;;;3.65;;
23838;SDS011;12100;44.384;20.272;2022-09-20T20:38:23;5.80;;;3.95;;
23838;SDS011;12100;44.384;20.272;2022-09-20T20:41:02;14.02;;;4.57;;
23838;SDS011;12100;44.384;20.272;2022-09-20T20:43:30;6.47;;;3.78;;
23838;SDS011;12100;44.384;20.272;2022-09-20T20:45:58;7.90;;;4.10;;
23838;SDS011;12100;44.384;20.272;2022-09-20T20:48:24;8.80;;;4.10;;
23838;SDS011;12100;44.384;20.272;2022-09-20T20:51:06;7.75;;;3.53;;
23838;SDS011;12100;44.384;20.272;2022-09-20T20:53:34;5.60;;;2.90;;
23838;SDS011;12100;44.384;20.272;2022-09-20T20:56:09;5.20;;;2.53;;
23838;SDS011;12100;44.384;20.272;2022-09-20T20:58:37;3.92;;;1.85;;